sensor_id;sensor_type;location;lat;lon;timestamp;P1;durP1;ratioP1;P2;durP2;ratioP2
16612;SDS011;8419;52.358;9.752;2024-01-16T00:02:21;2.97;;;0.67;;
16612;SDS011;8419;52.358;9.752;2024-01-16T00:05:07;1.60;;;0.80;;
16612;SDS011;8419;52.358;9.752;2024-01-16T00:07:53;1.20;;;0.60;;
16612;SDS011;8419;52.358;9.752;2024-01-16T00:10:39;1.57;;;0.77;;
16612;SDS011;8419;52.358;9.752;2024-01-16T00:13:25;0.30;;;0.30;;
16612;SDS011;8419;52.358;9.752;2024-01-16T00:16:11;0.53;;;0.33;;
16612;SDS011;8419;52.358;9.752;2024-01-16T00:18:56;0.47;;;0.40;;
16612;SDS011;8419;52.358;9.752;2024-01-16T00:21:42;0.90;;;0.90;;
16612;SDS011;8419;52.358;9.752;2024-01-16T00:24:29;5.13;;;1.03;;
16612;SDS011;8419;52.358;9.752;2024-01-16T00:27:15;1.33;;;0.70;;
16612;SDS011;8419;52.358;9.752;2024-01-16T00:30:01;0.57;;;0.57;;
16612;SDS011;8419;52.358;9.752;2024-01-16T00:32:48;1.17;;;0.30;;
16612;SDS011;8419;52.358;9.752;2024-01-16T00:35:33;1.13;;;0.70;;
16612;SDS011;8419;52.358;9.752;2024-01-16T00:38:21;0.30;;;0.20;;
16612;SDS011;8419;52.358;9.752;2024-01-16T00:41:06;0.50;;;0.50;;
16612;SDS011;8419;52.358;9.752;2024-01-16T00:43:52;0.23;;;0.20;;
16612;SDS011;8419;52.358;9.752;2024-01-16T00:46:38;1.03;;;0.30;;
16612;SDS011;8419;52.358;9.752;2024-01-16T00:49:23;0.23;;;0.23;;
16612;SDS011;8419;52.358;9.752;2024-01-16T00:52:09;0.70;;;0.70;;
16612;SDS011;8419;52.358;9.752;2024-01-16T00:54:55;0.30;;;0.20;;
16612;SDS011;8419;52.358;9.752;2024-01-16T00:57:40;0.37;;;0.37;;
16612;SDS011;8419;52.358;9.752;2024-01-16T01:00:26;2.00;;;0.50;;
16612;SDS011;8419;52.358;9.752;2024-01-16T01:03:14;4.03;;;0.50;;
16612;SDS011;8419;52.358;9.752;2024-01-16T01:06:00;0.30;;;0.30;;
16612;SDS011;8419;52.358;9.752;2024-01-16T01:08:46;0.20;;;0.20;;
16612;SDS011;8419;52.358;9.752;2024-01-16T01:11:31;0.57;;;0.40;;
16612;SDS011;8419;52.358;9.752;2024-01-16T01:14:16;1.37;;;0.63;;
16612;SDS011;8419;52.358;9.752;2024-01-16T01:17:01;1.97;;;0.60;;
16612;SDS011;8419;52.358;9.752;2024-01-16T01:19:48;0.77;;;0.37;;
16612;SDS011;8419;52.358;9.752;2024-01-16T01:22:33;1.00;;;0.70;;
16612;SDS011;8419;52.358;9.752;2024-01-16T01:25:19;1.27;;;0.73;;
16612;SDS011;8419;52.358;9.752;2024-01-16T01:28:05;2.47;;;0.60;;
16612;SDS011;8419;52.358;9.752;2024-01-16T01:30:50;2.83;;;0.80;;
16612;SDS011;8419;52.358;9.752;2024-01-16T01:33:36;1.00;;;0.53;;
16612;SDS011;8419;52.358;9.752;2024-01-16T01:36:22;0.67;;;0.40;;
16612;SDS011;8419;52.358;9.752;2024-01-16T01:39:07;0.93;;;0.90;;
16612;SDS011;8419;52.358;9.752;2024-01-16T01:41:54;0.60;;;0.43;;
16612;SDS011;8419;52.358;9.752;2024-01-16T01:44:39;1.13;;;0.83;;
16612;SDS011;8419;52.358;9.752;2024-01-16T01:47:26;1.60;;;0.67;;
16612;SDS011;8419;52.358;9.752;2024-01-16T01:50:13;0.57;;;0.50;;
16612;SDS011;8419;52.358;9.752;2024-01-16T01:52:59;9.47;;;1.23;;
16612;SDS011;8419;52.358;9.752;2024-01-16T01:55:45;1.43;;;0.50;;
16612;SDS011;8419;52.358;9.752;2024-01-16T01:58:31;2.67;;;0.70;;
16612;SDS011;8419;52.358;9.752;2024-01-16T02:01:18;1.33;;;0.70;;
16612;SDS011;8419;52.358;9.752;2024-01-16T02:04:06;0.77;;;0.43;;
16612;SDS011;8419;52.358;9.752;2024-01-16T02:06:53;0.57;;;0.37;;
16612;SDS011;8419;52.358;9.752;2024-01-16T02:09:41;0.53;;;0.50;;
16612;SDS011;8419;52.358;9.752;2024-01-16T02:12:27;0.70;;;0.50;;
16612;SDS011;8419;52.358;9.752;2024-01-16T02:15:13;1.33;;;0.87;;
16612;SDS011;8419;52.358;9.752;2024-01-16T02:17:58;0.20;;;0.20;;
16612;SDS011;8419;52.358;9.752;2024-01-16T02:20:44;0.80;;;0.50;;
16612;SDS011;8419;52.358;9.752;2024-01-16T02:23:31;1.60;;;0.40;;
16612;SDS011;8419;52.358;9.752;2024-01-16T02:26:19;1.50;;;0.63;;
16612;SDS011;8419;52.358;9.752;2024-01-16T02:29:04;3.43;;;0.80;;
16612;SDS011;8419;52.358;9.752;2024-01-16T02:31:50;2.00;;;1.00;;
16612;SDS011;8419;52.358;9.752;2024-01-16T02:34:38;3.73;;;0.60;;
16612;SDS011;8419;52.358;9.752;2024-01-16T02:37:24;1.30;;;0.60;;
16612;SDS011;8419;52.358;9.752;2024-01-16T02:40:10;1.93;;;0.60;;
16612;SDS011;8419;52.358;9.752;2024-01-16T02:42:56;0.73;;;0.47;;
16612;SDS011;8419;52.358;9.752;2024-01-16T02:45:41;0.23;;;0.23;;
16612;SDS011;8419;52.358;9.752;2024-01-16T02:48:27;1.20;;;0.77;;
16612;SDS011;8419;52.358;9.752;2024-01-16T02:51:13;1.17;;;0.73;;
16612;SDS011;8419;52.358;9.752;2024-01-16T02:54:00;4.57;;;1.17;;
16612;SDS011;8419;52.358;9.752;2024-01-16T02:56:45;0.57;;;0.57;;
16612;SDS011;8419;52.358;9.752;2024-01-16T02:59:30;0.53;;;0.53;;
16612;SDS011;8419;52.358;9.752;2024-01-16T03:02:16;0.40;;;0.40;;
16612;SDS011;8419;52.358;9.752;2024-01-16T03:05:03;0.90;;;0.50;;
16612;SDS011;8419;52.358;9.752;2024-01-16T03:07:49;1.43;;;0.33;;
16612;SDS011;8419;52.358;9.752;2024-01-16T03:10:35;0.40;;;0.40;;
16612;SDS011;8419;52.358;9.752;2024-01-16T03:13:21;2.80;;;0.73;;
16612;SDS011;8419;52.358;9.752;2024-01-16T03:16:07;0.70;;;0.63;;
16612;SDS011;8419;52.358;9.752;2024-01-16T03:18:53;1.03;;;0.90;;
16612;SDS011;8419;52.358;9.752;2024-01-16T03:21:38;1.90;;;1.03;;
16612;SDS011;8419;52.358;9.752;2024-01-16T03:24:23;2.50;;;0.70;;
16612;SDS011;8419;52.358;9.752;2024-01-16T03:27:10;0.63;;;0.60;;
16612;SDS011;8419;52.358;9.752;2024-01-16T03:29:56;0.83;;;0.40;;
16612;SDS011;8419;52.358;9.752;2024-01-16T03:32:41;3.80;;;1.03;;
16612;SDS011;8419;52.358;9.752;2024-01-16T03:35:26;2.20;;;1.60;;
16612;SDS011;8419;52.358;9.752;2024-01-16T03:38:12;0.67;;;0.67;;
16612;SDS011;8419;52.358;9.752;2024-01-16T03:40:59;2.20;;;1.10;;
16612;SDS011;8419;52.358;9.752;2024-01-16T03:43:45;3.83;;;1.07;;
16612;SDS011;8419;52.358;9.752;2024-01-16T03:46:30;2.87;;;1.03;;
16612;SDS011;8419;52.358;9.752;2024-01-16T03:49:16;0.83;;;0.70;;
16612;SDS011;8419;52.358;9.752;2024-01-16T03:52:01;0.53;;;0.37;;
16612;SDS011;8419;52.358;9.752;2024-01-16T03:54:47;3.07;;;1.00;;
16612;SDS011;8419;52.358;9.752;2024-01-16T03:57:33;2.10;;;0.60;;
16612;SDS011;8419;52.358;9.752;2024-01-16T04:00:18;4.10;;;1.03;;
16612;SDS011;8419;52.358;9.752;2024-01-16T04:03:04;1.67;;;0.97;;
16612;SDS011;8419;52.358;9.752;2024-01-16T04:05:51;5.53;;;1.33;;
16612;SDS011;8419;52.358;9.752;2024-01-16T04:08:37;1.50;;;0.63;;
16612;SDS011;8419;52.358;9.752;2024-01-16T04:11:23;7.83;;;1.20;;
16612;SDS011;8419;52.358;9.752;2024-01-16T04:14:08;2.37;;;0.70;;
16612;SDS011;8419;52.358;9.752;2024-01-16T04:16:54;2.17;;;1.40;;
16612;SDS011;8419;52.358;9.752;2024-01-16T04:19:39;3.60;;;0.87;;
16612;SDS011;8419;52.358;9.752;2024-01-16T04:22:25;3.67;;;1.00;;
16612;SDS011;8419;52.358;9.752;2024-01-16T04:25:11;0.90;;;0.53;;
16612;SDS011;8419;52.358;9.752;2024-01-16T04:27:56;1.87;;;0.50;;
16612;SDS011;8419;52.358;9.752;2024-01-16T04:30:42;0.30;;;0.30;;
16612;SDS011;8419;52.358;9.752;2024-01-16T04:33:28;11.70;;;1.33;;
16612;SDS011;8419;52.358;9.752;2024-01-16T04:36:13;0.83;;;0.80;;
16612;SDS011;8419;52.358;9.752;2024-01-16T04:38:59;2.43;;;0.57;;
16612;SDS011;8419;52.358;9.752;2024-01-16T04:41:45;2.20;;;0.67;;
16612;SDS011;8419;52.358;9.752;2024-01-16T04:44:30;2.53;;;0.67;;
16612;SDS011;8419;52.358;9.752;2024-01-16T04:47:15;0.30;;;0.30;;
16612;SDS011;8419;52.358;9.752;2024-01-16T04:50:01;1.60;;;0.60;;
16612;SDS011;8419;52.358;9.752;2024-01-16T04:52:48;2.40;;;1.30;;
16612;SDS011;8419;52.358;9.752;2024-01-16T04:55:34;2.20;;;0.47;;
16612;SDS011;8419;52.358;9.752;2024-01-16T04:58:19;2.77;;;0.87;;
16612;SDS011;8419;52.358;9.752;2024-01-16T05:01:05;2.47;;;0.80;;
16612;SDS011;8419;52.358;9.752;2024-01-16T05:03:51;1.83;;;1.17;;
16612;SDS011;8419;52.358;9.752;2024-01-16T05:06:36;4.03;;;1.10;;
16612;SDS011;8419;52.358;9.752;2024-01-16T05:09:21;1.17;;;0.80;;
16612;SDS011;8419;52.358;9.752;2024-01-16T05:12:07;1.80;;;1.17;;
16612;SDS011;8419;52.358;9.752;2024-01-16T05:14:53;9.30;;;1.13;;
16612;SDS011;8419;52.358;9.752;2024-01-16T05:17:39;3.60;;;1.10;;
16612;SDS011;8419;52.358;9.752;2024-01-16T05:20:24;1.47;;;0.97;;
16612;SDS011;8419;52.358;9.752;2024-01-16T05:23:10;2.30;;;0.63;;
16612;SDS011;8419;52.358;9.752;2024-01-16T05:25:55;1.30;;;0.60;;
16612;SDS011;8419;52.358;9.752;2024-01-16T05:28:43;0.97;;;0.70;;
16612;SDS011;8419;52.358;9.752;2024-01-16T05:31:29;4.00;;;1.27;;
16612;SDS011;8419;52.358;9.752;2024-01-16T05:34:16;3.73;;;1.03;;
16612;SDS011;8419;52.358;9.752;2024-01-16T05:37:02;1.53;;;0.83;;
16612;SDS011;8419;52.358;9.752;2024-01-16T05:39:48;5.60;;;1.30;;
16612;SDS011;8419;52.358;9.752;2024-01-16T05:42:33;2.63;;;0.67;;
16612;SDS011;8419;52.358;9.752;2024-01-16T05:45:19;3.30;;;1.37;;
16612;SDS011;8419;52.358;9.752;2024-01-16T05:48:05;1.10;;;0.90;;
16612;SDS011;8419;52.358;9.752;2024-01-16T05:50:52;2.43;;;0.93;;
16612;SDS011;8419;52.358;9.752;2024-01-16T05:53:38;5.23;;;1.80;;
16612;SDS011;8419;52.358;9.752;2024-01-16T05:56:24;0.20;;;0.20;;
16612;SDS011;8419;52.358;9.752;2024-01-16T05:59:09;5.87;;;1.33;;
16612;SDS011;8419;52.358;9.752;2024-01-16T06:01:55;3.53;;;1.70;;
16612;SDS011;8419;52.358;9.752;2024-01-16T06:04:40;2.63;;;0.97;;
16612;SDS011;8419;52.358;9.752;2024-01-16T06:07:26;4.77;;;1.60;;
16612;SDS011;8419;52.358;9.752;2024-01-16T06:10:12;2.83;;;1.03;;
16612;SDS011;8419;52.358;9.752;2024-01-16T06:12:58;4.70;;;1.70;;
16612;SDS011;8419;52.358;9.752;2024-01-16T06:15:43;5.23;;;1.80;;
16612;SDS011;8419;52.358;9.752;2024-01-16T06:18:29;2.90;;;1.47;;
16612;SDS011;8419;52.358;9.752;2024-01-16T06:21:16;2.70;;;1.10;;
16612;SDS011;8419;52.358;9.752;2024-01-16T06:24:02;3.03;;;0.63;;
16612;SDS011;8419;52.358;9.752;2024-01-16T06:26:59;5.30;;;1.90;;
16612;SDS011;8419;52.358;9.752;2024-01-16T06:29:44;4.50;;;1.97;;
16612;SDS011;8419;52.358;9.752;2024-01-16T06:32:29;5.97;;;1.37;;
16612;SDS011;8419;52.358;9.752;2024-01-16T06:35:15;6.87;;;1.73;;
16612;SDS011;8419;52.358;9.752;2024-01-16T06:38:02;0.40;;;0.40;;
16612;SDS011;8419;52.358;9.752;2024-01-16T06:40:47;3.07;;;1.63;;
16612;SDS011;8419;52.358;9.752;2024-01-16T06:43:33;1.27;;;0.80;;
16612;SDS011;8419;52.358;9.752;2024-01-16T06:46:18;2.47;;;1.20;;
16612;SDS011;8419;52.358;9.752;2024-01-16T06:49:04;2.07;;;1.27;;
16612;SDS011;8419;52.358;9.752;2024-01-16T06:51:50;1.40;;;0.73;;
16612;SDS011;8419;52.358;9.752;2024-01-16T06:54:35;4.53;;;1.80;;
16612;SDS011;8419;52.358;9.752;2024-01-16T06:57:21;3.40;;;1.73;;
16612;SDS011;8419;52.358;9.752;2024-01-16T07:00:07;5.07;;;2.63;;
16612;SDS011;8419;52.358;9.752;2024-01-16T07:02:53;0.47;;;0.47;;
16612;SDS011;8419;52.358;9.752;2024-01-16T07:05:39;6.60;;;2.40;;
16612;SDS011;8419;52.358;9.752;2024-01-16T07:08:26;5.50;;;2.47;;
16612;SDS011;8419;52.358;9.752;2024-01-16T07:11:12;4.67;;;2.50;;
16612;SDS011;8419;52.358;9.752;2024-01-16T07:13:59;4.53;;;2.60;;
16612;SDS011;8419;52.358;9.752;2024-01-16T07:16:45;9.97;;;2.60;;
16612;SDS011;8419;52.358;9.752;2024-01-16T07:19:31;4.70;;;2.00;;
16612;SDS011;8419;52.358;9.752;2024-01-16T07:22:17;5.40;;;2.37;;
16612;SDS011;8419;52.358;9.752;2024-01-16T07:25:03;3.33;;;1.63;;
16612;SDS011;8419;52.358;9.752;2024-01-16T07:27:48;7.03;;;2.80;;
16612;SDS011;8419;52.358;9.752;2024-01-16T07:30:35;4.23;;;1.87;;
16612;SDS011;8419;52.358;9.752;2024-01-16T07:33:21;4.77;;;2.47;;
16612;SDS011;8419;52.358;9.752;2024-01-16T07:36:07;2.43;;;1.20;;
16612;SDS011;8419;52.358;9.752;2024-01-16T07:38:53;7.60;;;2.37;;
16612;SDS011;8419;52.358;9.752;2024-01-16T07:41:39;5.73;;;2.80;;
16612;SDS011;8419;52.358;9.752;2024-01-16T07:44:25;3.40;;;2.50;;
16612;SDS011;8419;52.358;9.752;2024-01-16T07:47:10;5.17;;;2.37;;
16612;SDS011;8419;52.358;9.752;2024-01-16T07:49:56;1.17;;;1.07;;
16612;SDS011;8419;52.358;9.752;2024-01-16T07:52:42;3.50;;;2.40;;
16612;SDS011;8419;52.358;9.752;2024-01-16T07:55:27;1.40;;;1.30;;
16612;SDS011;8419;52.358;9.752;2024-01-16T07:58:13;2.10;;;0.77;;
16612;SDS011;8419;52.358;9.752;2024-01-16T08:01:01;3.83;;;2.53;;
16612;SDS011;8419;52.358;9.752;2024-01-16T08:03:48;1.30;;;0.93;;
16612;SDS011;8419;52.358;9.752;2024-01-16T08:06:34;1.27;;;0.73;;
16612;SDS011;8419;52.358;9.752;2024-01-16T08:09:20;3.17;;;1.87;;
16612;SDS011;8419;52.358;9.752;2024-01-16T08:12:06;8.63;;;3.20;;
16612;SDS011;8419;52.358;9.752;2024-01-16T08:14:53;3.57;;;2.67;;
16612;SDS011;8419;52.358;9.752;2024-01-16T08:17:38;2.37;;;1.53;;
16612;SDS011;8419;52.358;9.752;2024-01-16T08:20:24;2.50;;;1.17;;
16612;SDS011;8419;52.358;9.752;2024-01-16T08:23:10;7.23;;;2.07;;
16612;SDS011;8419;52.358;9.752;2024-01-16T08:25:56;5.13;;;2.43;;
16612;SDS011;8419;52.358;9.752;2024-01-16T08:28:42;2.50;;;2.07;;
16612;SDS011;8419;52.358;9.752;2024-01-16T08:31:27;2.50;;;1.10;;
16612;SDS011;8419;52.358;9.752;2024-01-16T08:34:15;2.47;;;1.83;;
16612;SDS011;8419;52.358;9.752;2024-01-16T08:37:01;7.90;;;2.93;;
16612;SDS011;8419;52.358;9.752;2024-01-16T08:39:49;4.77;;;2.33;;
16612;SDS011;8419;52.358;9.752;2024-01-16T08:42:34;5.70;;;1.90;;
16612;SDS011;8419;52.358;9.752;2024-01-16T08:45:20;3.03;;;2.43;;
16612;SDS011;8419;52.358;9.752;2024-01-16T08:48:05;10.80;;;3.50;;
16612;SDS011;8419;52.358;9.752;2024-01-16T08:50:51;9.60;;;2.87;;
16612;SDS011;8419;52.358;9.752;2024-01-16T08:53:38;7.33;;;3.00;;
16612;SDS011;8419;52.358;9.752;2024-01-16T08:56:24;4.63;;;2.43;;
16612;SDS011;8419;52.358;9.752;2024-01-16T08:59:10;3.33;;;1.30;;
16612;SDS011;8419;52.358;9.752;2024-01-16T09:01:55;2.73;;;2.33;;
16612;SDS011;8419;52.358;9.752;2024-01-16T09:04:41;4.57;;;1.63;;
16612;SDS011;8419;52.358;9.752;2024-01-16T09:07:26;9.80;;;5.13;;
16612;SDS011;8419;52.358;9.752;2024-01-16T09:10:12;7.33;;;2.97;;
16612;SDS011;8419;52.358;9.752;2024-01-16T09:12:59;3.47;;;2.27;;
16612;SDS011;8419;52.358;9.752;2024-01-16T09:15:45;9.10;;;3.80;;
16612;SDS011;8419;52.358;9.752;2024-01-16T09:18:30;3.60;;;2.43;;
16612;SDS011;8419;52.358;9.752;2024-01-16T09:21:16;5.50;;;1.70;;
16612;SDS011;8419;52.358;9.752;2024-01-16T09:24:02;3.43;;;2.07;;
16612;SDS011;8419;52.358;9.752;2024-01-16T09:26:48;4.43;;;2.43;;
16612;SDS011;8419;52.358;9.752;2024-01-16T09:29:33;1.80;;;1.50;;
16612;SDS011;8419;52.358;9.752;2024-01-16T09:32:19;5.97;;;1.80;;
16612;SDS011;8419;52.358;9.752;2024-01-16T09:35:05;4.30;;;2.67;;
16612;SDS011;8419;52.358;9.752;2024-01-16T09:37:53;1.77;;;1.20;;
16612;SDS011;8419;52.358;9.752;2024-01-16T09:40:39;2.43;;;1.43;;
16612;SDS011;8419;52.358;9.752;2024-01-16T09:43:25;3.57;;;2.43;;
16612;SDS011;8419;52.358;9.752;2024-01-16T09:46:12;2.20;;;1.37;;
16612;SDS011;8419;52.358;9.752;2024-01-16T09:49:00;5.50;;;2.63;;
16612;SDS011;8419;52.358;9.752;2024-01-16T09:51:46;6.77;;;2.87;;
16612;SDS011;8419;52.358;9.752;2024-01-16T09:54:32;2.77;;;1.93;;
16612;SDS011;8419;52.358;9.752;2024-01-16T09:57:18;2.53;;;1.10;;
16612;SDS011;8419;52.358;9.752;2024-01-16T10:00:07;4.83;;;1.67;;
16612;SDS011;8419;52.358;9.752;2024-01-16T10:02:56;3.10;;;1.80;;
16612;SDS011;8419;52.358;9.752;2024-01-16T10:05:44;5.13;;;2.40;;
16612;SDS011;8419;52.358;9.752;2024-01-16T10:08:31;4.37;;;2.87;;
16612;SDS011;8419;52.358;9.752;2024-01-16T10:11:17;5.73;;;2.60;;
16612;SDS011;8419;52.358;9.752;2024-01-16T10:14:03;1.77;;;1.50;;
16612;SDS011;8419;52.358;9.752;2024-01-16T10:16:55;3.97;;;1.97;;
16612;SDS011;8419;52.358;9.752;2024-01-16T10:19:47;6.40;;;2.53;;
16612;SDS011;8419;52.358;9.752;2024-01-16T10:22:34;2.87;;;1.40;;
16612;SDS011;8419;52.358;9.752;2024-01-16T10:25:20;1.80;;;1.37;;
16612;SDS011;8419;52.358;9.752;2024-01-16T10:28:09;2.77;;;1.90;;
16612;SDS011;8419;52.358;9.752;2024-01-16T10:30:58;3.50;;;2.07;;
16612;SDS011;8419;52.358;9.752;2024-01-16T10:33:47;1.47;;;1.37;;
16612;SDS011;8419;52.358;9.752;2024-01-16T10:36:32;2.70;;;1.57;;
16612;SDS011;8419;52.358;9.752;2024-01-16T10:39:18;1.53;;;1.13;;
16612;SDS011;8419;52.358;9.752;2024-01-16T10:42:04;2.00;;;1.53;;
16612;SDS011;8419;52.358;9.752;2024-01-16T10:44:53;5.40;;;2.00;;
16612;SDS011;8419;52.358;9.752;2024-01-16T10:47:39;6.37;;;2.70;;
16612;SDS011;8419;52.358;9.752;2024-01-16T10:50:24;1.40;;;0.90;;
16612;SDS011;8419;52.358;9.752;2024-01-16T10:53:12;2.97;;;1.40;;
16612;SDS011;8419;52.358;9.752;2024-01-16T10:56:02;4.33;;;2.70;;
16612;SDS011;8419;52.358;9.752;2024-01-16T10:58:51;3.50;;;2.50;;
16612;SDS011;8419;52.358;9.752;2024-01-16T11:01:48;4.97;;;2.70;;
16612;SDS011;8419;52.358;9.752;2024-01-16T11:04:36;5.87;;;1.77;;
16612;SDS011;8419;52.358;9.752;2024-01-16T11:07:23;2.73;;;2.03;;
16612;SDS011;8419;52.358;9.752;2024-01-16T11:10:10;2.30;;;1.20;;
16612;SDS011;8419;52.358;9.752;2024-01-16T11:12:59;3.43;;;1.37;;
16612;SDS011;8419;52.358;9.752;2024-01-16T11:15:46;3.37;;;2.30;;
16612;SDS011;8419;52.358;9.752;2024-01-16T11:18:34;2.53;;;1.55;;
16612;SDS011;8419;52.358;9.752;2024-01-16T11:21:20;4.47;;;1.67;;
16612;SDS011;8419;52.358;9.752;2024-01-16T11:24:07;4.77;;;1.30;;
16612;SDS011;8419;52.358;9.752;2024-01-16T11:26:52;3.67;;;2.17;;
16612;SDS011;8419;52.358;9.752;2024-01-16T11:29:38;1.10;;;0.87;;
16612;SDS011;8419;52.358;9.752;2024-01-16T11:32:33;2.63;;;1.40;;
16612;SDS011;8419;52.358;9.752;2024-01-16T11:35:24;1.10;;;0.97;;
16612;SDS011;8419;52.358;9.752;2024-01-16T11:38:17;4.50;;;2.00;;
16612;SDS011;8419;52.358;9.752;2024-01-16T11:41:05;1.87;;;0.93;;
16612;SDS011;8419;52.358;9.752;2024-01-16T11:43:50;5.13;;;2.23;;
16612;SDS011;8419;52.358;9.752;2024-01-16T11:49:45;1.97;;;1.77;;
16612;SDS011;8419;52.358;9.752;2024-01-16T11:52:40;1.63;;;1.40;;
16612;SDS011;8419;52.358;9.752;2024-01-16T11:55:26;3.93;;;1.87;;
16612;SDS011;8419;52.358;9.752;2024-01-16T11:58:21;3.33;;;1.50;;
16612;SDS011;8419;52.358;9.752;2024-01-16T12:01:22;2.72;;;1.65;;
16612;SDS011;8419;52.358;9.752;2024-01-16T12:04:08;2.70;;;1.48;;
16612;SDS011;8419;52.358;9.752;2024-01-16T12:06:57;2.33;;;1.07;;
16612;SDS011;8419;52.358;9.752;2024-01-16T12:09:43;0.75;;;0.75;;
16612;SDS011;8419;52.358;9.752;2024-01-16T12:12:28;2.33;;;0.98;;
16612;SDS011;8419;52.358;9.752;2024-01-16T12:15:16;6.17;;;2.03;;
16612;SDS011;8419;52.358;9.752;2024-01-16T12:18:03;0.87;;;0.63;;
16612;SDS011;8419;52.358;9.752;2024-01-16T12:20:48;4.43;;;1.97;;
16612;SDS011;8419;52.358;9.752;2024-01-16T12:23:36;3.47;;;2.10;;
16612;SDS011;8419;52.358;9.752;2024-01-16T12:26:22;2.33;;;1.50;;
16612;SDS011;8419;52.358;9.752;2024-01-16T12:29:09;1.73;;;1.13;;
16612;SDS011;8419;52.358;9.752;2024-01-16T12:32:04;5.90;;;2.80;;
16612;SDS011;8419;52.358;9.752;2024-01-16T12:34:59;8.33;;;2.40;;
16612;SDS011;8419;52.358;9.752;2024-01-16T12:41:06;2.50;;;1.77;;
16612;SDS011;8419;52.358;9.752;2024-01-16T12:43:54;1.23;;;1.13;;
16612;SDS011;8419;52.358;9.752;2024-01-16T12:46:40;4.43;;;2.17;;
16612;SDS011;8419;52.358;9.752;2024-01-16T12:49:26;4.05;;;2.15;;
16612;SDS011;8419;52.358;9.752;2024-01-16T12:52:15;3.63;;;2.43;;
16612;SDS011;8419;52.358;9.752;2024-01-16T12:55:05;1.93;;;1.57;;
16612;SDS011;8419;52.358;9.752;2024-01-16T12:58:11;2.28;;;1.65;;
16612;SDS011;8419;52.358;9.752;2024-01-16T13:01:20;2.15;;;1.25;;
16612;SDS011;8419;52.358;9.752;2024-01-16T13:04:07;5.30;;;3.07;;
16612;SDS011;8419;52.358;9.752;2024-01-16T13:07:01;3.37;;;2.47;;
16612;SDS011;8419;52.358;9.752;2024-01-16T13:09:49;4.65;;;2.72;;
16612;SDS011;8419;52.358;9.752;2024-01-16T13:12:35;3.03;;;2.13;;
16612;SDS011;8419;52.358;9.752;2024-01-16T13:15:20;5.33;;;2.10;;
16612;SDS011;8419;52.358;9.752;2024-01-16T13:18:06;4.10;;;3.37;;
16612;SDS011;8419;52.358;9.752;2024-01-16T13:21:01;4.93;;;3.37;;
16612;SDS011;8419;52.358;9.752;2024-01-16T13:23:48;8.77;;;4.13;;
16612;SDS011;8419;52.358;9.752;2024-01-16T13:26:36;4.37;;;2.60;;
16612;SDS011;8419;52.358;9.752;2024-01-16T13:29:21;13.83;;;2.37;;
16612;SDS011;8419;52.358;9.752;2024-01-16T13:32:07;9.50;;;4.30;;
16612;SDS011;8419;52.358;9.752;2024-01-16T13:34:53;5.87;;;4.00;;
16612;SDS011;8419;52.358;9.752;2024-01-16T13:37:39;5.37;;;4.07;;
16612;SDS011;8419;52.358;9.752;2024-01-16T13:40:25;7.30;;;3.90;;
16612;SDS011;8419;52.358;9.752;2024-01-16T13:43:10;7.60;;;4.60;;
16612;SDS011;8419;52.358;9.752;2024-01-16T13:45:56;9.03;;;4.50;;
16612;SDS011;8419;52.358;9.752;2024-01-16T13:48:42;12.30;;;3.80;;
16612;SDS011;8419;52.358;9.752;2024-01-16T13:51:27;11.07;;;5.97;;
16612;SDS011;8419;52.358;9.752;2024-01-16T13:54:13;5.53;;;4.07;;
16612;SDS011;8419;52.358;9.752;2024-01-16T13:56:59;10.60;;;5.27;;
16612;SDS011;8419;52.358;9.752;2024-01-16T13:59:45;9.47;;;5.60;;
16612;SDS011;8419;52.358;9.752;2024-01-16T14:02:30;4.33;;;2.03;;
16612;SDS011;8419;52.358;9.752;2024-01-16T14:05:17;14.57;;;6.00;;
16612;SDS011;8419;52.358;9.752;2024-01-16T14:08:04;13.57;;;6.03;;
16612;SDS011;8419;52.358;9.752;2024-01-16T14:10:50;8.97;;;5.63;;
16612;SDS011;8419;52.358;9.752;2024-01-16T14:13:36;3.43;;;2.87;;
16612;SDS011;8419;52.358;9.752;2024-01-16T14:16:21;8.23;;;5.80;;
16612;SDS011;8419;52.358;9.752;2024-01-16T14:19:07;6.77;;;3.33;;
16612;SDS011;8419;52.358;9.752;2024-01-16T14:21:52;13.80;;;6.10;;
16612;SDS011;8419;52.358;9.752;2024-01-16T14:24:38;7.90;;;4.43;;
16612;SDS011;8419;52.358;9.752;2024-01-16T14:27:24;8.30;;;4.17;;
16612;SDS011;8419;52.358;9.752;2024-01-16T14:30:10;2.73;;;2.53;;
16612;SDS011;8419;52.358;9.752;2024-01-16T14:32:58;3.97;;;3.27;;
16612;SDS011;8419;52.358;9.752;2024-01-16T14:35:45;10.57;;;5.27;;
16612;SDS011;8419;52.358;9.752;2024-01-16T14:38:33;9.27;;;5.50;;
16612;SDS011;8419;52.358;9.752;2024-01-16T14:41:20;9.03;;;5.33;;
16612;SDS011;8419;52.358;9.752;2024-01-16T14:44:06;9.73;;;5.27;;
16612;SDS011;8419;52.358;9.752;2024-01-16T14:46:54;7.85;;;4.62;;
16612;SDS011;8419;52.358;9.752;2024-01-16T14:49:40;7.33;;;2.00;;
16612;SDS011;8419;52.358;9.752;2024-01-16T14:52:26;9.27;;;5.17;;
16612;SDS011;8419;52.358;9.752;2024-01-16T14:55:16;7.17;;;5.20;;
16612;SDS011;8419;52.358;9.752;2024-01-16T14:58:04;1.97;;;1.73;;
16612;SDS011;8419;52.358;9.752;2024-01-16T15:00:52;11.30;;;3.90;;
16612;SDS011;8419;52.358;9.752;2024-01-16T15:03:40;8.07;;;4.70;;
16612;SDS011;8419;52.358;9.752;2024-01-16T15:06:25;5.67;;;3.37;;
16612;SDS011;8419;52.358;9.752;2024-01-16T15:09:11;6.57;;;3.47;;
16612;SDS011;8419;52.358;9.752;2024-01-16T15:11:57;5.90;;;3.73;;
16612;SDS011;8419;52.358;9.752;2024-01-16T15:14:43;5.97;;;3.37;;
16612;SDS011;8419;52.358;9.752;2024-01-16T15:17:29;7.33;;;3.53;;
16612;SDS011;8419;52.358;9.752;2024-01-16T15:20:15;11.00;;;3.40;;
16612;SDS011;8419;52.358;9.752;2024-01-16T15:23:00;3.93;;;1.63;;
16612;SDS011;8419;52.358;9.752;2024-01-16T15:25:47;5.27;;;1.67;;
16612;SDS011;8419;52.358;9.752;2024-01-16T15:28:33;2.50;;;1.63;;
16612;SDS011;8419;52.358;9.752;2024-01-16T15:31:20;6.30;;;4.00;;
16612;SDS011;8419;52.358;9.752;2024-01-16T15:34:06;5.10;;;4.03;;
16612;SDS011;8419;52.358;9.752;2024-01-16T15:36:53;6.63;;;3.83;;
16612;SDS011;8419;52.358;9.752;2024-01-16T15:39:38;3.00;;;2.43;;
16612;SDS011;8419;52.358;9.752;2024-01-16T15:42:24;7.13;;;3.40;;
16612;SDS011;8419;52.358;9.752;2024-01-16T15:45:10;4.47;;;3.67;;
16612;SDS011;8419;52.358;9.752;2024-01-16T15:47:56;8.77;;;4.27;;
16612;SDS011;8419;52.358;9.752;2024-01-16T15:50:42;5.70;;;4.33;;
16612;SDS011;8419;52.358;9.752;2024-01-16T15:53:28;2.30;;;2.10;;
16612;SDS011;8419;52.358;9.752;2024-01-16T15:56:15;7.33;;;4.00;;
16612;SDS011;8419;52.358;9.752;2024-01-16T15:59:01;7.90;;;4.93;;
16612;SDS011;8419;52.358;9.752;2024-01-16T16:01:47;3.87;;;3.37;;
16612;SDS011;8419;52.358;9.752;2024-01-16T16:04:32;6.07;;;3.80;;
16612;SDS011;8419;52.358;9.752;2024-01-16T16:07:18;9.97;;;4.50;;
16612;SDS011;8419;52.358;9.752;2024-01-16T16:10:04;6.60;;;5.20;;
16612;SDS011;8419;52.358;9.752;2024-01-16T16:12:51;6.77;;;4.17;;
16612;SDS011;8419;52.358;9.752;2024-01-16T16:15:39;7.10;;;4.80;;
16612;SDS011;8419;52.358;9.752;2024-01-16T16:18:25;9.03;;;6.10;;
16612;SDS011;8419;52.358;9.752;2024-01-16T16:21:10;6.63;;;5.27;;
16612;SDS011;8419;52.358;9.752;2024-01-16T16:23:56;6.33;;;4.97;;
16612;SDS011;8419;52.358;9.752;2024-01-16T16:26:42;9.82;;;6.53;;
16612;SDS011;8419;52.358;9.752;2024-01-16T16:29:30;7.93;;;5.43;;
16612;SDS011;8419;52.358;9.752;2024-01-16T16:32:16;7.40;;;4.30;;
16612;SDS011;8419;52.358;9.752;2024-01-16T16:35:03;9.33;;;5.00;;
16612;SDS011;8419;52.358;9.752;2024-01-16T16:37:51;5.80;;;4.67;;
16612;SDS011;8419;52.358;9.752;2024-01-16T16:40:37;5.83;;;3.80;;
16612;SDS011;8419;52.358;9.752;2024-01-16T16:43:23;7.20;;;5.40;;
16612;SDS011;8419;52.358;9.752;2024-01-16T16:46:09;6.23;;;4.57;;
16612;SDS011;8419;52.358;9.752;2024-01-16T16:48:57;9.13;;;4.93;;
16612;SDS011;8419;52.358;9.752;2024-01-16T16:51:43;6.43;;;4.53;;
16612;SDS011;8419;52.358;9.752;2024-01-16T16:54:30;6.20;;;4.53;;
16612;SDS011;8419;52.358;9.752;2024-01-16T16:57:15;8.13;;;4.37;;
16612;SDS011;8419;52.358;9.752;2024-01-16T17:00:01;8.03;;;4.50;;
16612;SDS011;8419;52.358;9.752;2024-01-16T17:02:49;11.57;;;4.33;;
16612;SDS011;8419;52.358;9.752;2024-01-16T17:05:36;5.67;;;4.20;;